createdAt,value
2023-02-16T00:02:29.887Z,101261.72
2023-02-16T00:04:56.657Z,101265.47
2023-02-16T00:07:23.322Z,101264.16
2023-02-16T00:09:49.982Z,101264.16
2023-02-16T00:12:39.553Z,101244.97
2023-02-16T00:15:18.103Z,101250.84
2023-02-16T00:17:44.736Z,101248.72
2023-02-16T00:20:16.438Z,101241.19
2023-02-16T00:22:43.295Z,101246.22
2023-02-16T00:25:10.672Z,101256.34
2023-02-16T00:27:38.029Z,101258.22
2023-02-16T00:30:16.773Z,101248.09
2023-02-16T00:32:43.713Z,101233.41
2023-02-16T00:35:18.074Z,101237.28
2023-02-16T00:37:45.249Z,101238.34
2023-02-16T00:40:13.029Z,101227.91
2023-02-16T00:42:40.263Z,101235.53
2023-02-16T00:45:15.944Z,101226.28
2023-02-16T00:47:44.750Z,101228.59
2023-02-16T00:50:19.836Z,101229.25
2023-02-16T00:52:47.427Z,101231.91
2023-02-16T00:55:15.719Z,101216.97
2023-02-16T00:58:06.194Z,101218.47
2023-02-16T01:00:54.200Z,101211.34
2023-02-16T01:03:26.592Z,101216.28
2023-02-16T01:06:11.856Z,101213.59
2023-02-16T01:08:57.008Z,101208.22
2023-02-16T01:11:24.164Z,101215.34
2023-02-16T01:13:51.921Z,101210.94
2023-02-16T01:16:25.673Z,101214.56
2023-02-16T01:18:53.825Z,101212.31
2023-02-16T01:21:22.030Z,101213.69
2023-02-16T01:23:48.889Z,101221.41
2023-02-16T01:26:18.382Z,101219.81
2023-02-16T01:28:45.593Z,101213.47
2023-02-16T01:31:13.209Z,101213.94
2023-02-16T01:33:41.318Z,101221.44
2023-02-16T01:36:34.439Z,101219.06
2023-02-16T01:39:01.402Z,101209.84
2023-02-16T01:41:57.534Z,101207.97
2023-02-16T01:44:29.323Z,101221.81
2023-02-16T01:47:11.638Z,101217.66
2023-02-16T01:49:38.492Z,101225.91
2023-02-16T01:52:37.665Z,101226.06
2023-02-16T01:55:25.292Z,101224.41
2023-02-16T01:58:01.050Z,101225.38
2023-02-16T02:00:48.397Z,101219.59
2023-02-16T02:03:38.571Z,101220.25
2023-02-16T02:06:10.129Z,101225.97
2023-02-16T02:08:39.710Z,101221.25
2023-02-16T02:11:14.097Z,101227.13
2023-02-16T02:13:55.250Z,101221.88
2023-02-16T02:16:24.403Z,101211.91
2023-02-16T02:18:51.252Z,101229.19
2023-02-16T02:22:14.547Z,101223.50
2023-02-16T02:24:50.277Z,101229.13
2023-02-16T02:27:27.517Z,101222.47
2023-02-16T02:30:06.330Z,101230.97
2023-02-16T02:32:54.442Z,101235.75
2023-02-16T02:35:48.309Z,101235.66
2023-02-16T02:38:33.284Z,101236.34
2023-02-16T02:41:48.308Z,101235.41
2023-02-16T02:44:20.832Z,101236.84
2023-02-16T02:46:48.673Z,101238.56
2023-02-16T02:49:16.023Z,101233.41
2023-02-16T02:51:42.719Z,101243.09
2023-02-16T02:54:31.455Z,101238.66
2023-02-16T02:57:45.801Z,101245.94
2023-02-16T03:00:41.980Z,101229.94
2023-02-16T03:03:14.028Z,101238.00
2023-02-16T03:05:45.966Z,101228.16
2023-02-16T03:08:16.367Z,101225.50
2023-02-16T03:11:08.717Z,101221.06
2023-02-16T03:13:45.946Z,101222.72
2023-02-16T03:16:41.279Z,101205.47
2023-02-16T03:19:29.138Z,101203.78
2023-02-16T03:22:15.779Z,101210.13
2023-02-16T03:25:01.426Z,101189.66
2023-02-16T03:27:50.908Z,101194.94
2023-02-16T03:30:19.604Z,101208.09
2023-02-16T03:32:46.909Z,101203.88
2023-02-16T03:35:14.057Z,101210.41
2023-02-16T03:37:41.982Z,101217.75
2023-02-16T03:40:32.711Z,101208.97
2023-02-16T03:43:03.013Z,101215.34
2023-02-16T03:45:31.678Z,101217.19
2023-02-16T03:47:58.513Z,101216.63
2023-02-16T03:50:27.095Z,101216.63
2023-02-16T03:53:06.732Z,101221.22
2023-02-16T03:55:39.787Z,101201.53
2023-02-16T03:58:08.629Z,101211.47
2023-02-16T04:00:36.486Z,101207.00
2023-02-16T04:03:04.872Z,101217.03
2023-02-16T04:05:32.023Z,101217.03
2023-02-16T04:07:58.840Z,101217.13
2023-02-16T04:10:25.642Z,101212.56
2023-02-16T04:12:52.344Z,101205.06
2023-02-16T04:15:22.868Z,101197.13
2023-02-16T04:17:50.069Z,101198.84
2023-02-16T04:20:19.872Z,101200.84
2023-02-16T04:22:47.281Z,101191.94
2023-02-16T04:25:15.048Z,101200.81
2023-02-16T04:27:43.201Z,101196.94
2023-02-16T04:30:13.715Z,101197.81
2023-02-16T04:32:40.764Z,101198.69
2023-02-16T04:35:08.292Z,101191.25
2023-02-16T04:37:35.053Z,101195.22
2023-02-16T04:40:01.963Z,101196.16
2023-02-16T04:42:28.686Z,101195.19
2023-02-16T04:44:55.382Z,101193.25
2023-02-16T04:47:23.016Z,101195.50
2023-02-16T04:49:50.405Z,101190.53
2023-02-16T04:52:17.177Z,101186.91
2023-02-16T04:54:44.012Z,101182.31
2023-02-16T04:57:12.228Z,101184.28
2023-02-16T04:59:39.027Z,101190.75
2023-02-16T05:02:05.698Z,101198.97
2023-02-16T05:04:32.414Z,101183.47
2023-02-16T05:06:59.154Z,101183.81
2023-02-16T05:09:25.907Z,101194.66
2023-02-16T05:12:11.092Z,101194.34
2023-02-16T05:14:44.793Z,101186.09
2023-02-16T05:17:23.825Z,101179.78
2023-02-16T05:19:53.320Z,101184.44
2023-02-16T05:22:20.843Z,101194.03
2023-02-16T05:24:48.421Z,101196.34
2023-02-16T05:27:23.809Z,101188.00
2023-02-16T05:29:50.575Z,101189.16
2023-02-16T05:32:17.555Z,101189.22
2023-02-16T05:34:46.960Z,101191.94
2023-02-16T05:37:16.016Z,101190.59
2023-02-16T05:39:42.878Z,101183.28
2023-02-16T05:42:09.871Z,101181.38
2023-02-16T05:44:37.197Z,101178.59
2023-02-16T05:47:04.331Z,101185.16
2023-02-16T05:49:31.183Z,101190.28
2023-02-16T05:51:57.840Z,101185.59
2023-02-16T05:54:24.512Z,101182.25
2023-02-16T05:56:52.070Z,101171.13
2023-02-16T05:59:19.106Z,101164.59
2023-02-16T06:01:50.411Z,101168.78
2023-02-16T06:04:18.650Z,101175.00
2023-02-16T06:06:45.467Z,101172.28
2023-02-16T06:09:12.481Z,101174.88
2023-02-16T06:11:39.500Z,101170.28
2023-02-16T06:14:12.250Z,101171.38
2023-02-16T06:16:41.547Z,101169.59
2023-02-16T06:19:09.289Z,101174.03
2023-02-16T06:21:38.409Z,101169.69
2023-02-16T06:24:06.370Z,101167.63
2023-02-16T06:26:33.366Z,101171.44
2023-02-16T06:29:00.111Z,101172.38
2023-02-16T06:31:27.130Z,101160.88
2023-02-16T06:33:54.502Z,101160.97
2023-02-16T06:36:21.190Z,101158.50
2023-02-16T06:38:48.303Z,101166.44
2023-02-16T06:41:31.171Z,101170.88
2023-02-16T06:44:03.646Z,101159.53
2023-02-16T06:46:30.568Z,101161.28
2023-02-16T06:48:57.285Z,101154.03
2023-02-16T06:51:23.979Z,101150.69
2023-02-16T06:53:50.620Z,101151.75
2023-02-16T06:56:17.267Z,101153.50
2023-02-16T06:58:44.243Z,101153.00
2023-02-16T07:01:11.719Z,101146.88
2023-02-16T07:03:38.528Z,101151.94
2023-02-16T07:06:05.889Z,101156.44
2023-02-16T07:08:32.596Z,101150.22
2023-02-16T07:10:59.343Z,101144.66
2023-02-16T07:13:25.984Z,101140.97
2023-02-16T07:15:52.720Z,101148.22
2023-02-16T07:18:19.425Z,101147.25
2023-02-16T07:20:47.652Z,101143.22
2023-02-16T07:23:14.290Z,101142.31
2023-02-16T07:25:40.978Z,101148.34
2023-02-16T07:28:07.573Z,101129.44
2023-02-16T07:30:34.302Z,101136.53
2023-02-16T07:33:00.937Z,101140.03
2023-02-16T07:35:27.658Z,101135.50
2023-02-16T07:37:54.371Z,101135.31
2023-02-16T07:40:21.192Z,101135.06
2023-02-16T07:42:47.993Z,101132.91
2023-02-16T07:45:14.779Z,101140.84
2023-02-16T07:47:41.499Z,101137.50
2023-02-16T07:50:08.679Z,101146.44
2023-02-16T07:52:35.398Z,101146.44
2023-02-16T07:55:02.215Z,101156.69
2023-02-16T07:57:29.924Z,101157.34
2023-02-16T07:59:56.647Z,101166.75
2023-02-16T08:02:23.768Z,101162.78
2023-02-16T08:04:52.836Z,101169.78
2023-02-16T08:07:20.681Z,101163.88
2023-02-16T08:09:47.334Z,101161.72
2023-02-16T08:12:15.908Z,101168.63
2023-02-16T08:14:43.627Z,101172.91
2023-02-16T08:17:10.668Z,101181.25
2023-02-16T08:19:37.678Z,101181.53
2023-02-16T08:22:05.813Z,101175.78
2023-02-16T08:24:34.078Z,101184.34
2023-02-16T08:27:03.874Z,101188.72
2023-02-16T08:29:31.574Z,101198.47
2023-02-16T08:31:58.721Z,101192.97
2023-02-16T08:34:26.400Z,101201.31
2023-02-16T08:36:56.859Z,101199.41
2023-02-16T08:39:27.130Z,101209.16
2023-02-16T08:41:54.961Z,101205.41
2023-02-16T08:44:23.914Z,101208.63
2023-02-16T08:46:52.812Z,101207.03
2023-02-16T08:49:21.959Z,101216.03
2023-02-16T08:51:52.207Z,101214.03
2023-02-16T08:54:26.658Z,101218.50
2023-02-16T08:56:54.340Z,101229.50
2023-02-16T08:59:22.325Z,101232.22
2023-02-16T09:01:49.096Z,101239.66
2023-02-16T09:04:17.550Z,101253.38
2023-02-16T09:06:45.857Z,101260.19
2023-02-16T09:09:13.372Z,101266.19
2023-02-16T09:11:41.020Z,101266.31
2023-02-16T09:14:09.333Z,101269.69
2023-02-16T09:16:39.696Z,101274.09
2023-02-16T09:19:07.345Z,101275.47
2023-02-16T09:21:34.243Z,101254.69
2023-02-16T09:24:05.032Z,101241.88
2023-02-16T09:26:34.691Z,101283.50
2023-02-16T09:29:02.211Z,101283.22
2023-02-16T09:31:35.596Z,101296.13
2023-02-16T09:34:23.341Z,101296.78
2023-02-16T09:36:51.282Z,101303.25
2023-02-16T09:39:19.255Z,101315.06
2023-02-16T09:41:49.042Z,101324.34
2023-02-16T09:44:39.389Z,101348.97
2023-02-16T09:47:15.515Z,101341.09
2023-02-16T09:49:45.092Z,101344.69
2023-02-16T09:52:36.110Z,101331.06
2023-02-16T09:55:16.517Z,101344.16
2023-02-16T09:58:01.166Z,101374.06
2023-02-16T10:00:33.834Z,101366.78
2023-02-16T10:03:13.486Z,101376.28
2023-02-16T10:05:56.592Z,101364.16
2023-02-16T10:08:31.280Z,101378.59
2023-02-16T10:11:28.198Z,101383.84
2023-02-16T10:13:59.069Z,101391.72
2023-02-16T10:16:35.205Z,101396.25
2023-02-16T10:19:08.726Z,101404.94
2023-02-16T10:21:36.173Z,101405.34
2023-02-16T10:24:07.474Z,101434.41
2023-02-16T10:26:47.865Z,101439.22
2023-02-16T10:29:18.981Z,101443.31
2023-02-16T10:32:25.983Z,101451.34
2023-02-16T10:35:04.628Z,101465.03
2023-02-16T10:38:11.491Z,101470.00
2023-02-16T10:40:56.831Z,101483.00
2023-02-16T10:43:43.320Z,101475.03
2023-02-16T10:46:16.902Z,101472.56
2023-02-16T10:48:45.149Z,101485.41
2023-02-16T10:51:16.896Z,101485.97
2023-02-16T10:53:51.231Z,101491.19
2023-02-16T10:56:25.038Z,101494.53
2023-02-16T10:58:52.835Z,101503.81
2023-02-16T11:01:26.781Z,101501.63
2023-02-16T11:03:54.146Z,101495.88
2023-02-16T11:06:25.484Z,101505.94
2023-02-16T11:08:59.352Z,101511.63
2023-02-16T11:11:35.841Z,101517.53
2023-02-16T11:14:18.697Z,101521.56
2023-02-16T11:16:46.594Z,101525.06
2023-02-16T11:19:22.671Z,101520.47
2023-02-16T11:21:55.335Z,101518.78
2023-02-16T11:24:30.487Z,101518.22
2023-02-16T11:27:03.221Z,101523.53
2023-02-16T11:29:31.570Z,101523.91
2023-02-16T11:31:59.654Z,101528.50
2023-02-16T11:34:37.523Z,101519.28
2023-02-16T11:37:27.950Z,101519.09
2023-02-16T11:40:09.295Z,101521.66
2023-02-16T11:42:40.390Z,101522.34
2023-02-16T11:45:09.352Z,101520.19
2023-02-16T11:47:43.054Z,101520.09
2023-02-16T11:50:28.458Z,101516.88
2023-02-16T11:53:26.186Z,101528.50
2023-02-16T11:56:27.195Z,101521.03
2023-02-16T11:59:21.280Z,101509.81
2023-02-16T12:02:00.542Z,101504.53
2023-02-16T12:04:42.462Z,101512.81
2023-02-16T12:07:27.677Z,101506.00
2023-02-16T12:10:04.237Z,101499.00
2023-02-16T12:12:40.276Z,101506.94
2023-02-16T12:15:45.007Z,101504.25
2023-02-16T12:18:19.702Z,101496.16
2023-02-16T12:21:02.175Z,101481.53
2023-02-16T12:23:40.987Z,101479.94
2023-02-16T12:26:20.090Z,101487.88
2023-02-16T12:28:59.135Z,101486.94
2023-02-16T12:31:52.595Z,101475.47
2023-02-16T12:34:50.164Z,101469.50
2023-02-16T12:37:16.870Z,101480.06
2023-02-16T12:39:59.127Z,101474.91
2023-02-16T12:42:41.050Z,101467.50
2023-02-16T12:45:18.923Z,101461.94
2023-02-16T12:47:45.529Z,101459.09
2023-02-16T12:50:27.795Z,101455.75
2023-02-16T12:53:01.326Z,101457.44
2023-02-16T12:55:36.372Z,101448.28
2023-02-16T12:58:27.370Z,101445.59
2023-02-16T13:01:00.070Z,101441.13
2023-02-16T13:03:39.280Z,101429.94
2023-02-16T13:06:21.559Z,101431.22
2023-02-16T13:08:51.178Z,101414.44
2023-02-16T13:11:20.527Z,101418.19
2023-02-16T13:13:48.534Z,101423.50
2023-02-16T13:16:50.437Z,101427.00
2023-02-16T13:19:17.311Z,101419.69
2023-02-16T13:21:53.059Z,101417.28
2023-02-16T13:24:46.494Z,101405.94
2023-02-16T13:27:46.668Z,101414.22
2023-02-16T13:30:43.111Z,101411.41
2023-02-16T13:33:27.242Z,101406.91
2023-02-16T13:36:14.817Z,101400.28
2023-02-16T13:39:28.723Z,101404.19
2023-02-16T13:42:04.330Z,101395.28
2023-02-16T13:44:36.782Z,101397.38
2023-02-16T13:47:05.163Z,101382.00
2023-02-16T13:49:40.494Z,101384.00
2023-02-16T13:52:08.809Z,101384.16
2023-02-16T13:54:39.951Z,101386.94
2023-02-16T13:57:12.564Z,101378.66
2023-02-16T13:59:39.124Z,101368.41
2023-02-16T14:02:32.475Z,101371.44
2023-02-16T14:04:59.088Z,101364.28
2023-02-16T14:07:35.931Z,101358.88
2023-02-16T14:10:02.732Z,101354.31
2023-02-16T14:12:36.172Z,101360.69
2023-02-16T14:15:07.578Z,101350.94
2023-02-16T14:17:35.576Z,101359.03
2023-02-16T14:20:24.919Z,101361.91
2023-02-16T14:23:00.167Z,101361.91
2023-02-16T14:25:28.883Z,101358.41
2023-02-16T14:28:14.259Z,101355.88
2023-02-16T14:30:55.806Z,101354.75
2023-02-16T14:33:39.005Z,101345.06
2023-02-16T14:36:14.232Z,101342.34
2023-02-16T14:38:41.412Z,101343.03
2023-02-16T14:41:22.619Z,101338.84
2023-02-16T14:43:51.528Z,101321.69
2023-02-16T14:46:36.534Z,101322.94
2023-02-16T14:49:21.797Z,101315.63
2023-02-16T14:51:57.624Z,101297.69
2023-02-16T14:54:37.617Z,101293.84
2023-02-16T14:57:38.341Z,101283.03
2023-02-16T15:00:14.512Z,101286.38
2023-02-16T15:02:55.909Z,101285.41
2023-02-16T15:05:41.718Z,101277.22
2023-02-16T15:08:16.509Z,101269.03
2023-02-16T15:10:47.924Z,101272.75
2023-02-16T15:13:23.946Z,101258.38
2023-02-16T15:15:56.001Z,101250.25
2023-02-16T15:18:27.567Z,101257.44
2023-02-16T15:20:58.319Z,101254.97
2023-02-16T15:23:28.600Z,101259.50
2023-02-16T15:25:58.589Z,101251.56
2023-02-16T15:28:29.605Z,101249.81
2023-02-16T15:30:59.491Z,101235.19
2023-02-16T15:33:32.577Z,101231.53
2023-02-16T15:36:02.690Z,101223.47
2023-02-16T15:38:35.397Z,101224.28
2023-02-16T15:41:07.841Z,101228.88
2023-02-16T15:43:43.717Z,101222.34
2023-02-16T15:46:33.625Z,101223.25
2023-02-16T15:49:32.859Z,101221.50
2023-02-16T15:52:01.007Z,101216.94
2023-02-16T15:54:31.172Z,101226.75
2023-02-16T15:57:04.506Z,101219.66
2023-02-16T15:59:57.194Z,101207.72
2023-02-16T16:02:44.131Z,101211.66
2023-02-16T16:05:24.042Z,101200.94
2023-02-16T16:07:51.673Z,101209.22
2023-02-16T16:10:30.643Z,101201.28
2023-02-16T16:13:04.110Z,101198.59
2023-02-16T16:15:34.616Z,101202.94
2023-02-16T16:18:02.692Z,101198.47
2023-02-16T16:20:38.041Z,101202.94
2023-02-16T16:23:14.175Z,101195.88
2023-02-16T16:25:47.750Z,101193.25
2023-02-16T16:28:34.059Z,101185.06
2023-02-16T16:31:16.440Z,101191.44
2023-02-16T16:33:53.255Z,101193.19
2023-02-16T16:36:20.892Z,101189.53
2023-02-16T16:38:47.890Z,101180.91
2023-02-16T16:41:27.745Z,101179.31
2023-02-16T16:43:56.522Z,101179.66
2023-02-16T16:46:23.095Z,101178.78
2023-02-16T16:48:53.845Z,101179.13
2023-02-16T16:51:34.687Z,101184.84
2023-02-16T16:54:12.496Z,101188.97
2023-02-16T16:56:41.356Z,101192.56
2023-02-16T16:59:08.681Z,101185.25
2023-02-16T17:01:35.832Z,101186.38
2023-02-16T17:04:02.701Z,101183.66
2023-02-16T17:06:29.831Z,101170.25
2023-02-16T17:08:56.478Z,101178.72
2023-02-16T17:11:31.954Z,101166.22
2023-02-16T17:14:27.025Z,101157.72
2023-02-16T17:16:55.128Z,101169.91
2023-02-16T17:19:22.910Z,101166.75
2023-02-16T17:21:50.021Z,101167.91
2023-02-16T17:24:16.838Z,101160.47
2023-02-16T17:26:43.542Z,101150.38
2023-02-16T17:29:10.376Z,101145.22
2023-02-16T17:31:37.403Z,101165.25
2023-02-16T17:34:04.542Z,101156.47
2023-02-16T17:36:31.292Z,101163.84
2023-02-16T17:38:58.165Z,101159.78
2023-02-16T17:41:27.831Z,101169.97
2023-02-16T17:43:54.776Z,101164.31
2023-02-16T17:46:23.308Z,101165.03
2023-02-16T17:48:53.535Z,101169.03
2023-02-16T17:51:21.931Z,101162.03
2023-02-16T17:53:48.872Z,101159.78
2023-02-16T17:56:18.687Z,101164.41
2023-02-16T17:58:45.591Z,101167.78
2023-02-16T18:01:17.198Z,101168.41
2023-02-16T18:03:44.219Z,101174.59
2023-02-16T18:06:14.691Z,101156.63
2023-02-16T18:08:41.392Z,101156.63
2023-02-16T18:11:08.086Z,101162.03
2023-02-16T18:13:34.991Z,101156.34
2023-02-16T18:16:06.941Z,101152.00
2023-02-16T18:18:36.769Z,101150.03
2023-02-16T18:21:03.728Z,101142.09
2023-02-16T18:23:31.280Z,101140.00
2023-02-16T18:25:58.064Z,101144.56
2023-02-16T18:28:30.802Z,101139.38
2023-02-16T18:30:57.927Z,101129.47
2023-02-16T18:33:25.588Z,101128.22
2023-02-16T18:35:55.159Z,101129.97
2023-02-16T18:38:22.967Z,101141.38
2023-02-16T18:40:50.379Z,101132.66
2023-02-16T18:43:17.136Z,101137.03
2023-02-16T18:45:44.067Z,101142.00
2023-02-16T18:48:10.882Z,101133.78
2023-02-16T18:50:37.555Z,101130.66
2023-02-16T18:53:04.254Z,101130.72
2023-02-16T18:55:35.800Z,101117.59
2023-02-16T18:58:07.393Z,101125.09
2023-02-16T19:00:34.778Z,101128.91
2023-02-16T19:03:01.737Z,101119.47
2023-02-16T19:05:28.655Z,101121.78
2023-02-16T19:07:55.365Z,101117.81
2023-02-16T19:10:22.117Z,101106.94
2023-02-16T19:12:48.837Z,101111.75
2023-02-16T19:15:15.552Z,101116.53
2023-02-16T19:17:42.428Z,101116.69
2023-02-16T19:20:12.205Z,101118.78
2023-02-16T19:22:39.036Z,101104.94
2023-02-16T19:25:06.657Z,101110.34
2023-02-16T19:27:33.782Z,101107.81
2023-02-16T19:30:00.776Z,101105.53
2023-02-16T19:32:27.519Z,101108.41
2023-02-16T19:34:54.210Z,101111.63
2023-02-16T19:37:21.351Z,101106.34
2023-02-16T19:39:48.051Z,101096.75
2023-02-16T19:42:17.291Z,101105.44
2023-02-16T19:44:43.961Z,101108.59
2023-02-16T19:47:10.623Z,101114.06
2023-02-16T19:49:37.374Z,101098.75
2023-02-16T19:52:04.787Z,101104.31
2023-02-16T19:54:35.844Z,101100.22
2023-02-16T19:57:03.911Z,101106.25
2023-02-16T19:59:32.311Z,101094.13
2023-02-16T20:01:59.423Z,101086.88
2023-02-16T20:04:26.624Z,101084.09
2023-02-16T20:06:56.632Z,101078.25
2023-02-16T20:09:24.735Z,101070.13
2023-02-16T20:11:52.062Z,101063.75
2023-02-16T20:14:18.895Z,101059.94
2023-02-16T20:16:46.096Z,101048.16
2023-02-16T20:19:12.873Z,101043.88
2023-02-16T20:21:43.998Z,101033.16
2023-02-16T20:24:11.296Z,101034.38
2023-02-16T20:26:41.270Z,101033.50
2023-02-16T20:29:10.332Z,101033.69
2023-02-16T20:31:43.979Z,101021.63
2023-02-16T20:34:11.217Z,101016.88
2023-02-16T20:36:38.011Z,101012.31
2023-02-16T20:39:07.089Z,101004.91
2023-02-16T20:41:33.913Z,101001.63
2023-02-16T20:44:02.873Z,101002.47
2023-02-16T20:46:30.152Z,100989.91
2023-02-16T20:48:56.951Z,100986.59
2023-02-16T20:51:24.314Z,100975.44
2023-02-16T20:53:51.015Z,100984.94
2023-02-16T20:56:21.742Z,100972.47
2023-02-16T20:58:50.513Z,100976.41
2023-02-16T21:01:21.752Z,100971.88
2023-02-16T21:03:50.049Z,100967.63
2023-02-16T21:06:17.040Z,100967.50
2023-02-16T21:08:43.911Z,100951.47
2023-02-16T21:11:11.177Z,100945.53
2023-02-16T21:13:39.562Z,100936.13
2023-02-16T21:16:07.448Z,100928.09
2023-02-16T21:18:35.064Z,100921.78
2023-02-16T21:21:03.012Z,100919.03
2023-02-16T21:23:30.441Z,100907.06
2023-02-16T21:26:05.478Z,100906.28
2023-02-16T21:28:32.653Z,100904.53
2023-02-16T21:31:13.809Z,100902.88
2023-02-16T21:33:40.928Z,100909.78
2023-02-16T21:36:11.131Z,100908.81
2023-02-16T21:38:38.707Z,100899.94
2023-02-16T21:41:25.661Z,100890.19
2023-02-16T21:44:05.985Z,100897.16
2023-02-16T21:46:37.525Z,100875.34
2023-02-16T21:49:09.923Z,100871.03
2023-02-16T21:51:38.750Z,100863.28
2023-02-16T21:54:07.299Z,100854.59
2023-02-16T21:56:37.395Z,100853.97
2023-02-16T21:59:06.210Z,100843.50
2023-02-16T22:01:37.161Z,100834.03
2023-02-16T22:04:04.426Z,100821.91
2023-02-16T22:06:35.469Z,100821.34
2023-02-16T22:09:05.631Z,100822.94
2023-02-16T22:11:32.497Z,100819.00
2023-02-16T22:14:00.661Z,100803.94
2023-02-16T22:16:28.946Z,100804.16
2023-02-16T22:19:08.009Z,100787.66
2023-02-16T22:21:37.536Z,100785.81
2023-02-16T22:24:05.130Z,100772.47
2023-02-16T22:26:33.862Z,100777.50
2023-02-16T22:29:04.272Z,100772.41
2023-02-16T22:31:31.304Z,100753.16
2023-02-16T22:34:02.069Z,100752.97
2023-02-16T22:36:29.758Z,100745.81
2023-02-16T22:38:57.223Z,100753.75
2023-02-16T22:41:24.630Z,100751.81
2023-02-16T22:43:56.207Z,100739.97
2023-02-16T22:46:24.706Z,100728.06
2023-02-16T22:48:52.131Z,100725.47
2023-02-16T22:51:21.296Z,100705.88
2023-02-16T22:53:48.880Z,100695.56
2023-02-16T22:56:18.775Z,100694.03
2023-02-16T22:58:46.496Z,100689.25
2023-02-16T23:01:19.713Z,100680.69
2023-02-16T23:03:54.155Z,100667.53
2023-02-16T23:06:23.520Z,100660.41
2023-02-16T23:08:59.222Z,100667.44
2023-02-16T23:11:27.532Z,100662.03
2023-02-16T23:13:54.751Z,100662.41
2023-02-16T23:16:24.775Z,100653.91
2023-02-16T23:18:51.820Z,100637.47
2023-02-16T23:21:27.393Z,100633.72
2023-02-16T23:23:55.035Z,100631.38
2023-02-16T23:26:23.570Z,100614.38
2023-02-16T23:28:53.333Z,100615.00
2023-02-16T23:31:20.948Z,100607.72
2023-02-16T23:33:47.879Z,100612.19
2023-02-16T23:36:14.574Z,100613.25
2023-02-16T23:38:41.336Z,100603.25
2023-02-16T23:41:11.947Z,100587.34
2023-02-16T23:43:39.001Z,100592.63
2023-02-16T23:46:06.448Z,100581.03
2023-02-16T23:48:34.618Z,100584.78
2023-02-16T23:51:01.751Z,100580.63
2023-02-16T23:53:29.001Z,100579.31
2023-02-16T23:55:59.770Z,100574.66
2023-02-16T23:58:31.583Z,100560.16
